createdAt,value
2023-02-16T16:09:58.751Z,14.10
2023-02-16T16:12:27.096Z,14.10
2023-02-16T16:14:56.163Z,14.00
2023-02-16T16:17:31.926Z,13.90
2023-02-16T16:20:37.339Z,13.80
2023-02-16T16:23:26.058Z,13.70
2023-02-16T16:25:53.964Z,13.60
2023-02-16T16:28:29.834Z,13.50
2023-02-16T16:31:21.183Z,13.30
2023-02-16T16:34:07.764Z,13.10
2023-02-16T16:36:47.618Z,12.90
2023-02-16T16:39:17.274Z,12.80
2023-02-16T16:42:10.327Z,12.70
2023-02-16T16:44:42.921Z,12.60
2023-02-16T16:47:24.618Z,12.60
2023-02-16T16:50:00.929Z,12.50
2023-02-16T16:52:48.287Z,12.50
2023-02-16T16:55:30.292Z,12.40
2023-02-16T16:58:06.095Z,12.40
2023-02-16T17:00:36.515Z,12.40
2023-02-16T17:03:06.167Z,12.30
2023-02-16T17:05:34.700Z,12.20
2023-02-16T17:08:04.883Z,12.10
2023-02-16T17:10:32.091Z,12.00
2023-02-16T17:13:00.672Z,11.90
2023-02-16T17:15:33.146Z,11.90
2023-02-16T17:18:00.818Z,11.70
2023-02-16T17:20:27.841Z,11.60
2023-02-16T17:22:54.807Z,11.60
2023-02-16T17:25:21.730Z,11.50
2023-02-16T17:27:48.659Z,11.50
2023-02-16T17:30:16.011Z,11.50
2023-02-16T17:32:43.066Z,11.50
2023-02-16T17:35:10.537Z,11.40
2023-02-16T17:37:37.499Z,11.40
2023-02-16T17:40:12.119Z,11.30
2023-02-16T17:42:39.173Z,11.20
2023-02-16T17:45:06.530Z,11.20
2023-02-16T17:47:33.803Z,11.20
2023-02-16T17:50:00.945Z,11.20
2023-02-16T17:52:28.027Z,11.20
2023-02-16T17:54:54.969Z,11.10
2023-02-16T17:57:21.916Z,10.90
2023-02-16T17:59:48.895Z,10.90
2023-02-16T18:02:15.861Z,10.80
2023-02-16T18:04:42.915Z,10.70
2023-02-16T18:07:19.867Z,10.80
2023-02-16T18:09:47.298Z,10.70
2023-02-16T18:12:14.630Z,10.70
2023-02-16T18:14:41.800Z,10.60
2023-02-16T18:17:11.640Z,10.60
2023-02-16T18:19:38.583Z,10.50
2023-02-16T18:22:05.502Z,10.40
2023-02-16T18:24:32.934Z,10.40
2023-02-16T18:27:00.189Z,10.40
2023-02-16T18:29:27.384Z,10.40
2023-02-16T18:31:54.471Z,10.30
2023-02-16T18:34:21.569Z,10.30
2023-02-16T18:36:48.539Z,10.20
2023-02-16T18:39:15.448Z,10.20
2023-02-16T18:41:42.445Z,10.20
2023-02-16T18:44:09.610Z,10.20
2023-02-16T18:46:36.571Z,10.10
2023-02-16T18:49:03.650Z,10.20
2023-02-16T18:51:32.070Z,10.10
2023-02-16T18:53:59.386Z,10.10
2023-02-16T18:56:27.634Z,10.10
2023-02-16T18:58:55.009Z,10.10
2023-02-16T19:01:31.207Z,10.00
2023-02-16T19:03:59.011Z,10.00
2023-02-16T19:06:29.688Z,10.00
2023-02-16T19:08:58.646Z,9.90
2023-02-16T19:11:28.211Z,9.80
2023-02-16T19:13:55.228Z,9.70
2023-02-16T19:16:22.462Z,9.80
2023-02-16T19:18:49.490Z,9.80
2023-02-16T19:21:16.435Z,9.80
2023-02-16T19:23:43.661Z,9.80
2023-02-16T19:26:13.149Z,9.70
2023-02-16T19:28:41.013Z,9.70
2023-02-16T19:31:21.126Z,9.70
2023-02-16T19:33:48.609Z,9.70
2023-02-16T19:36:16.568Z,9.70
2023-02-16T19:38:44.057Z,9.70
2023-02-16T19:41:27.085Z,9.70
2023-02-16T19:43:54.615Z,9.60
2023-02-16T19:46:22.018Z,9.60
2023-02-16T19:48:49.405Z,9.60
2023-02-16T19:51:17.099Z,9.50
2023-02-16T19:53:44.534Z,9.30
2023-02-16T19:56:22.613Z,9.20
2023-02-16T19:58:50.279Z,9.20
2023-02-16T20:01:20.426Z,9.20
2023-02-16T20:03:48.439Z,9.20
2023-02-16T20:06:19.481Z,9.20
2023-02-16T20:08:48.005Z,9.10
2023-02-16T20:11:17.248Z,9.20
2023-02-16T20:13:44.767Z,9.20
2023-02-16T20:16:12.886Z,9.10
2023-02-16T20:18:40.855Z,9.10
2023-02-16T20:21:14.179Z,9.20
2023-02-16T20:23:41.449Z,9.10
2023-02-16T20:26:21.365Z,9.00
2023-02-16T20:28:50.216Z,9.00
2023-02-16T20:31:30.037Z,9.00
2023-02-16T20:33:57.098Z,8.90
2023-02-16T20:36:24.127Z,8.80
2023-02-16T20:38:51.390Z,8.70
2023-02-16T20:41:19.693Z,8.70
2023-02-16T20:43:47.183Z,8.70
2023-02-16T20:46:15.309Z,8.80
2023-02-16T20:48:42.406Z,8.80
2023-02-16T20:51:11.323Z,8.90
2023-02-16T20:53:38.499Z,8.90
2023-02-16T20:56:14.893Z,8.90
2023-02-16T20:58:43.731Z,8.90
2023-02-16T21:01:21.565Z,9.00
2023-02-16T21:03:49.272Z,9.00
2023-02-16T21:06:16.455Z,9.00
2023-02-16T21:08:43.810Z,8.90
2023-02-16T21:11:11.080Z,8.90
2023-02-16T21:13:39.664Z,8.90
2023-02-16T21:16:10.293Z,8.80
2023-02-16T21:18:40.296Z,8.80
2023-02-16T21:21:08.453Z,8.80
2023-02-16T21:23:35.896Z,8.90
2023-02-16T21:26:05.816Z,8.90
2023-02-16T21:28:33.181Z,8.90
2023-02-16T21:31:21.862Z,8.80
2023-02-16T21:33:49.642Z,8.70
2023-02-16T21:36:20.084Z,8.80
2023-02-16T21:38:47.728Z,8.80
2023-02-16T21:41:27.792Z,8.80
2023-02-16T21:44:10.133Z,8.80
2023-02-16T21:46:42.623Z,8.90
2023-02-16T21:49:13.360Z,8.90
2023-02-16T21:51:41.763Z,8.90
2023-02-16T21:54:13.751Z,8.90
2023-02-16T21:56:48.340Z,8.90
2023-02-16T21:59:18.008Z,8.80
2023-02-16T22:01:48.008Z,8.80
2023-02-16T22:04:18.856Z,8.80
2023-02-16T22:06:47.957Z,8.90
2023-02-16T22:09:21.609Z,8.90
2023-02-16T22:11:49.576Z,8.90
2023-02-16T22:14:16.844Z,8.90
2023-02-16T22:16:45.820Z,8.90
2023-02-16T22:19:15.766Z,8.80
2023-02-16T22:21:44.201Z,8.80
2023-02-16T22:24:16.002Z,8.80
2023-02-16T22:26:43.343Z,8.80
2023-02-16T22:29:11.494Z,8.70
2023-02-16T22:31:39.426Z,8.70
2023-02-16T22:34:11.691Z,8.70
2023-02-16T22:36:38.897Z,8.80
2023-02-16T22:39:06.560Z,8.80
2023-02-16T22:41:34.403Z,8.80
2023-02-16T22:44:01.617Z,8.80
2023-02-16T22:46:30.135Z,8.80
2023-02-16T22:49:01.978Z,8.80
2023-02-16T22:51:30.325Z,8.80
2023-02-16T22:54:02.123Z,8.70
2023-02-16T22:56:29.986Z,8.60
2023-02-16T22:58:58.757Z,8.60
2023-02-16T23:01:27.582Z,8.60
2023-02-16T23:03:57.746Z,8.60
2023-02-16T23:06:31.166Z,8.60
2023-02-16T23:09:01.332Z,8.50
2023-02-16T23:11:28.774Z,8.50
2023-02-16T23:13:56.223Z,8.60
2023-02-16T23:16:25.200Z,8.60
2023-02-16T23:18:52.696Z,8.60
2023-02-16T23:21:22.968Z,8.60
2023-02-16T23:23:51.291Z,8.60
2023-02-16T23:26:20.333Z,8.60
2023-02-16T23:28:51.671Z,8.60
2023-02-16T23:31:19.824Z,8.60
2023-02-16T23:33:47.733Z,8.60
2023-02-16T23:36:14.689Z,8.50
2023-02-16T23:38:41.612Z,8.30
2023-02-16T23:41:13.534Z,8.30
2023-02-16T23:43:40.523Z,8.20
2023-02-16T23:46:08.120Z,8.20
2023-02-16T23:48:35.453Z,8.20
2023-02-16T23:51:02.615Z,8.20
2023-02-16T23:53:29.525Z,8.10
2023-02-16T23:56:08.686Z,8.10
2023-02-16T23:58:41.433Z,8.10
